createdAt,value
2018-05-27T00:01:18.494Z,13.10
2018-05-27T00:03:45.977Z,13.00
2018-05-27T00:06:13.473Z,13.00
2018-05-27T00:08:40.957Z,13.00
2018-05-27T00:11:08.483Z,13.00
2018-05-27T00:13:36.734Z,13.00
2018-05-27T00:16:04.234Z,12.90
2018-05-27T00:18:31.705Z,12.90
2018-05-27T00:20:59.223Z,12.90
2018-05-27T00:23:27.454Z,12.90
2018-05-27T00:25:54.963Z,12.90
2018-05-27T00:28:23.225Z,12.80
2018-05-27T00:30:52.218Z,12.80
2018-05-27T00:33:21.220Z,12.80
2018-05-27T00:35:49.490Z,12.80
2018-05-27T00:38:17.745Z,12.80
2018-05-27T00:40:45.223Z,12.80
2018-05-27T00:43:12.718Z,12.80
2018-05-27T00:45:40.195Z,12.70
2018-05-27T00:48:07.702Z,12.70
2018-05-27T00:50:35.201Z,12.70
2018-05-27T00:53:02.701Z,12.70
2018-05-27T00:55:30.193Z,12.60
2018-05-27T00:57:58.438Z,12.60
2018-05-27T01:00:25.959Z,12.60
2018-05-27T01:02:53.442Z,12.50
2018-05-27T01:05:20.932Z,12.50
2018-05-27T01:07:49.246Z,12.40
2018-05-27T01:10:16.734Z,12.40
2018-05-27T01:12:44.201Z,12.40
2018-05-27T01:15:11.713Z,12.40
2018-05-27T01:17:39.193Z,12.50
2018-05-27T01:20:06.690Z,12.40
2018-05-27T01:22:34.198Z,12.40
2018-05-27T01:25:01.695Z,12.40
2018-05-27T01:27:29.173Z,12.30
2018-05-27T01:29:56.699Z,12.20
2018-05-27T01:32:24.162Z,12.20
2018-05-27T01:34:51.642Z,12.20
2018-05-27T01:37:19.165Z,12.20
2018-05-27T01:39:46.642Z,12.20
2018-05-27T01:42:14.149Z,12.10
2018-05-27T01:44:42.418Z,12.10
2018-05-27T01:47:10.693Z,12.10
2018-05-27T01:49:38.937Z,12.10
2018-05-27T01:52:07.209Z,12.10
2018-05-27T01:54:34.705Z,12.10
2018-05-27T01:57:02.970Z,12.00
2018-05-27T01:59:30.434Z,11.90
2018-05-27T02:01:58.706Z,11.90
2018-05-27T02:04:26.173Z,11.90
2018-05-27T02:06:54.433Z,11.90
2018-05-27T02:09:21.917Z,11.80
2018-05-27T02:11:50.202Z,11.80
2018-05-27T02:14:18.428Z,11.80
2018-05-27T02:16:45.933Z,11.80
2018-05-27T02:19:14.176Z,11.90
2018-05-27T02:21:41.630Z,11.90
2018-05-27T02:24:09.133Z,11.90
2018-05-27T02:26:36.631Z,11.90
2018-05-27T02:29:04.138Z,11.90
2018-05-27T02:31:32.379Z,11.80
2018-05-27T02:33:59.887Z,11.80
2018-05-27T02:36:28.112Z,11.80
2018-05-27T02:38:55.636Z,11.70
2018-05-27T02:41:23.104Z,11.70
2018-05-27T02:43:50.605Z,11.70
2018-05-27T02:46:18.095Z,11.70
2018-05-27T02:48:46.349Z,11.60
2018-05-27T02:51:14.590Z,11.70
2018-05-27T02:53:42.102Z,11.60
2018-05-27T02:56:10.342Z,11.60
2018-05-27T02:58:37.809Z,11.60
2018-05-27T03:01:05.331Z,11.60
2018-05-27T03:03:32.823Z,11.60
2018-05-27T03:06:00.358Z,11.50
2018-05-27T03:08:27.836Z,11.40
2018-05-27T03:10:55.332Z,11.40
2018-05-27T03:13:22.825Z,11.40
2018-05-27T03:15:50.322Z,11.40
2018-05-27T03:18:17.793Z,11.40
2018-05-27T03:20:46.053Z,11.40
2018-05-27T03:23:13.530Z,11.30
2018-05-27T03:25:41.819Z,11.30
2018-05-27T03:28:10.054Z,11.20
2018-05-27T03:30:37.561Z,11.20
2018-05-27T03:33:05.073Z,11.20
2018-05-27T03:35:32.553Z,11.20
2018-05-27T03:38:00.065Z,11.20
2018-05-27T03:40:27.527Z,11.20
2018-05-27T03:42:55.029Z,11.10
2018-05-27T03:45:22.514Z,11.20
2018-05-27T03:47:50.768Z,11.10
2018-05-27T03:50:19.034Z,11.10
2018-05-27T03:52:47.319Z,11.10
2018-05-27T03:55:14.789Z,11.10
2018-05-27T03:57:43.049Z,11.10
2018-05-27T04:00:10.531Z,11.10
2018-05-27T04:02:38.809Z,11.20
2018-05-27T04:08:24.657Z,11.20
2018-05-27T04:10:52.125Z,11.30
2018-05-27T04:13:19.629Z,11.30
2018-05-27T04:15:47.869Z,11.40
2018-05-27T04:18:15.385Z,11.30
2018-05-27T04:20:43.370Z,11.40
2018-05-27T04:23:10.869Z,11.40
2018-05-27T04:25:38.397Z,11.40
2018-05-27T04:28:05.865Z,11.50
2018-05-27T04:30:33.362Z,11.50
2018-05-27T04:33:01.647Z,11.70
2018-05-27T04:35:29.917Z,11.80
2018-05-27T04:37:58.165Z,11.80
2018-05-27T04:40:25.641Z,11.80
2018-05-27T04:42:53.891Z,11.80
2018-05-27T04:45:21.401Z,11.80
2018-05-27T04:47:49.633Z,12.00
2018-05-27T04:50:17.101Z,12.00
2018-05-27T04:52:44.631Z,12.10
2018-05-27T04:55:12.097Z,12.20
2018-05-27T04:57:39.598Z,12.30
2018-05-27T05:00:07.836Z,12.50
2018-05-27T05:02:35.325Z,12.50
2018-05-27T05:05:02.793Z,12.60
2018-05-27T05:07:31.058Z,12.70
2018-05-27T05:09:58.555Z,12.70
2018-05-27T05:12:26.062Z,12.90
2018-05-27T05:14:53.552Z,13.00
2018-05-27T05:17:21.827Z,13.30
2018-05-27T05:19:50.097Z,13.40
2018-05-27T05:22:17.641Z,13.40
2018-05-27T05:24:45.107Z,13.60
2018-05-27T05:27:12.569Z,13.70
2018-05-27T05:29:40.866Z,14.20
2018-05-27T05:32:09.103Z,14.40
2018-05-27T05:34:36.615Z,14.30
2018-05-27T05:37:04.105Z,14.50
2018-05-27T05:39:31.613Z,14.70
2018-05-27T05:41:59.856Z,15.10
2018-05-27T05:44:27.356Z,15.00
2018-05-27T05:46:55.581Z,15.50
2018-05-27T05:49:23.126Z,15.50
2018-05-27T05:51:50.584Z,15.60
2018-05-27T05:54:18.074Z,15.80
2018-05-27T05:56:45.569Z,15.90
2018-05-27T05:59:13.071Z,16.00
2018-05-27T06:01:40.549Z,16.10
2018-05-27T06:04:08.793Z,16.20
2018-05-27T06:06:36.308Z,16.20
2018-05-27T06:09:04.589Z,16.30
2018-05-27T06:11:32.857Z,16.50
2018-05-27T06:14:00.333Z,16.40
2018-05-27T06:16:28.606Z,16.60
2018-05-27T06:18:56.833Z,16.70
2018-05-27T06:21:24.337Z,16.70
2018-05-27T06:23:52.577Z,17.10
2018-05-27T06:26:20.100Z,17.00
2018-05-27T06:28:47.590Z,17.20
2018-05-27T06:31:15.077Z,17.30
2018-05-27T06:33:43.313Z,17.40
2018-05-27T06:36:10.817Z,17.40
2018-05-27T06:38:39.102Z,17.50
2018-05-27T06:41:07.310Z,17.60
2018-05-27T06:43:34.797Z,17.60
2018-05-27T06:46:02.280Z,17.70
2018-05-27T06:48:29.789Z,17.90
2018-05-27T06:50:57.272Z,18.00
2018-05-27T06:53:24.776Z,18.10
2018-05-27T06:55:53.038Z,18.30
2018-05-27T06:58:21.314Z,18.40
2018-05-27T07:00:48.822Z,18.30
2018-05-27T07:03:16.326Z,18.50
2018-05-27T07:05:43.845Z,18.60
2018-05-27T07:08:11.338Z,18.70
2018-05-27T07:10:38.813Z,18.60
2018-05-27T07:13:07.059Z,18.80
2018-05-27T07:15:34.605Z,18.80
2018-05-27T07:18:02.086Z,18.90
2018-05-27T07:20:29.570Z,19.00
2018-05-27T07:22:57.842Z,19.50
2018-05-27T07:25:26.077Z,19.70
2018-05-27T07:27:53.554Z,19.60
2018-05-27T07:30:21.057Z,19.80
2018-05-27T07:32:48.546Z,20.10
2018-05-27T07:35:16.027Z,20.30
2018-05-27T07:37:43.493Z,20.70
2018-05-27T07:40:11.000Z,21.00
2018-05-27T07:42:38.505Z,21.40
2018-05-27T07:45:05.986Z,21.60
2018-05-27T07:47:34.265Z,22.30
2018-05-27T07:50:02.545Z,22.50
2018-05-27T07:52:30.844Z,22.90
2018-05-27T07:54:58.333Z,22.80
2018-05-27T07:57:25.770Z,22.90
2018-05-27T07:59:53.267Z,22.90
2018-05-27T08:02:20.765Z,23.50
2018-05-27T08:04:49.010Z,23.70
2018-05-27T08:07:16.522Z,23.70
2018-05-27T08:09:44.002Z,24.00
2018-05-27T08:12:11.497Z,24.10
2018-05-27T08:14:38.998Z,24.50
2018-05-27T08:17:06.499Z,24.80
2018-05-27T08:19:34.018Z,24.70
2018-05-27T08:22:01.505Z,24.80
2018-05-27T08:24:29.010Z,25.20
2018-05-27T08:26:57.269Z,25.60
2018-05-27T08:29:24.785Z,25.60
2018-05-27T08:31:52.782Z,25.80
2018-05-27T08:34:20.300Z,26.10
2018-05-27T08:36:47.789Z,26.20
2018-05-27T08:39:15.267Z,26.50
2018-05-27T08:41:42.768Z,26.60
2018-05-27T08:44:10.253Z,26.50
2018-05-27T08:46:37.842Z,26.80
2018-05-27T08:49:05.357Z,26.90
2018-05-27T08:51:33.206Z,27.10
2018-05-27T08:54:00.713Z,27.00
2018-05-27T08:56:28.273Z,27.10
2018-05-27T08:58:55.763Z,27.30
2018-05-27T09:01:23.251Z,27.70
2018-05-27T09:03:50.770Z,27.70
2018-05-27T09:06:19.009Z,27.90
2018-05-27T09:08:46.502Z,27.90
2018-05-27T09:11:14.751Z,28.30
2018-05-27T09:13:42.266Z,28.20
2018-05-27T09:16:10.509Z,28.60
2018-05-27T09:18:38.793Z,28.30
2018-05-27T09:21:07.792Z,27.90
2018-05-27T09:23:35.251Z,27.90
2018-05-27T09:26:02.740Z,28.10
2018-05-27T09:28:30.206Z,28.20
2018-05-27T09:30:57.757Z,28.20
2018-05-27T09:33:25.197Z,28.30
2018-05-27T09:35:53.445Z,28.50
2018-05-27T09:38:20.946Z,28.50
2018-05-27T09:40:49.178Z,28.50
2018-05-27T09:43:17.450Z,28.50
2018-05-27T09:45:44.936Z,28.50
2018-05-27T09:48:12.439Z,28.50
2018-05-27T09:50:39.925Z,28.90
2018-05-27T09:53:07.444Z,29.10
2018-05-27T09:55:34.982Z,29.10
2018-05-27T09:58:03.273Z,29.00
2018-05-27T10:00:31.492Z,28.90
2018-05-27T10:02:58.978Z,28.90
2018-05-27T10:05:26.486Z,29.30
2018-05-27T10:07:54.001Z,29.10
2018-05-27T10:10:22.252Z,29.00
2018-05-27T10:12:49.794Z,29.00
2018-05-27T10:15:17.258Z,29.10
2018-05-27T10:17:44.725Z,29.00
2018-05-27T10:20:12.246Z,28.80
2018-05-27T10:22:39.702Z,29.00
2018-05-27T10:25:07.202Z,29.20
2018-05-27T10:27:34.704Z,29.10
2018-05-27T10:30:03.007Z,29.00
2018-05-27T10:32:30.479Z,29.00
2018-05-27T10:34:57.953Z,28.90
2018-05-27T10:37:25.450Z,28.80
2018-05-27T10:39:53.701Z,29.30
2018-05-27T10:42:21.206Z,29.30
2018-05-27T10:44:48.685Z,29.40
2018-05-27T10:47:16.197Z,29.70
2018-05-27T10:49:43.669Z,29.80
2018-05-27T10:52:11.246Z,29.10
2018-05-27T10:54:38.678Z,29.60
2018-05-27T10:57:06.953Z,30.20
2018-05-27T10:59:35.214Z,30.10
2018-05-27T11:02:02.701Z,30.00
2018-05-27T11:04:31.008Z,29.60
2018-05-27T11:06:58.479Z,29.60
2018-05-27T11:09:25.981Z,29.50
2018-05-27T11:11:54.247Z,30.20
2018-05-27T11:14:21.741Z,30.20
2018-05-27T11:16:49.282Z,30.20
2018-05-27T11:19:16.755Z,30.30
2018-05-27T11:21:45.010Z,30.10
2018-05-27T11:24:13.270Z,30.40
2018-05-27T11:26:40.745Z,30.30
2018-05-27T11:29:09.026Z,30.50
2018-05-27T11:31:37.278Z,30.50
2018-05-27T11:34:04.778Z,30.50
2018-05-27T11:36:33.040Z,30.50
2018-05-27T11:39:01.275Z,30.30
2018-05-27T11:41:28.789Z,30.30
2018-05-27T11:43:57.030Z,30.40
2018-05-27T11:46:24.542Z,30.30
2018-05-27T11:48:52.031Z,30.70
2018-05-27T11:51:19.501Z,30.30
2018-05-27T11:53:46.994Z,30.30
2018-05-27T11:56:15.257Z,30.60
2018-05-27T11:58:43.528Z,30.50
2018-05-27T12:01:11.041Z,30.50
2018-05-27T12:03:38.538Z,30.80
2018-05-27T12:06:06.058Z,31.20
2018-05-27T12:08:33.534Z,31.10
2018-05-27T12:11:01.018Z,31.40
2018-05-27T12:13:28.515Z,31.30
2018-05-27T12:15:56.025Z,30.60
2018-05-27T12:18:23.532Z,30.10
2018-05-27T12:20:51.051Z,30.20
2018-05-27T12:23:18.542Z,30.40
2018-05-27T12:25:46.046Z,30.60
2018-05-27T12:28:13.561Z,30.30
2018-05-27T12:30:41.805Z,30.40
2018-05-27T12:33:09.297Z,30.40
2018-05-27T12:35:37.525Z,30.90
2018-05-27T12:38:05.612Z,30.90
2018-05-27T12:40:33.098Z,30.90
2018-05-27T12:43:00.602Z,30.50
2018-05-27T12:45:28.116Z,30.20
2018-05-27T12:47:56.370Z,30.50
2018-05-27T12:50:23.868Z,30.50
2018-05-27T12:52:51.361Z,30.10
2018-05-27T12:55:18.830Z,30.40
2018-05-27T12:57:48.394Z,30.90
2018-05-27T13:00:15.915Z,30.90
2018-05-27T13:02:43.381Z,30.80
2018-05-27T13:05:11.646Z,31.30
2018-05-27T13:07:39.118Z,31.30
2018-05-27T13:10:07.402Z,31.30
2018-05-27T13:12:35.671Z,31.10
2018-05-27T13:15:03.952Z,31.40
2018-05-27T13:17:32.214Z,31.00
2018-05-27T13:19:59.705Z,31.00
2018-05-27T13:22:27.182Z,31.10
2018-05-27T13:24:54.677Z,30.60
2018-05-27T13:27:22.154Z,30.30
2018-05-27T13:29:50.425Z,29.60
2018-05-27T13:32:17.901Z,29.60
2018-05-27T13:34:46.190Z,30.00
2018-05-27T13:37:13.650Z,30.00
2018-05-27T13:39:41.125Z,30.30
2018-05-27T13:42:08.648Z,30.40
2018-05-27T13:44:36.877Z,30.40
2018-05-27T13:47:04.369Z,30.40
2018-05-27T13:49:31.857Z,30.10
2018-05-27T13:51:59.377Z,30.50
2018-05-27T13:54:28.366Z,29.60
2018-05-27T13:56:56.601Z,29.60
2018-05-27T13:59:24.078Z,29.30
2018-05-27T14:01:51.556Z,29.10
2018-05-27T14:04:20.530Z,28.70
2018-05-27T14:06:48.055Z,28.70
2018-05-27T14:09:15.545Z,28.50
2018-05-27T14:11:43.046Z,28.20
2018-05-27T14:14:10.510Z,27.80
2018-05-27T14:16:38.785Z,27.50
2018-05-27T14:19:06.283Z,27.50
2018-05-27T14:21:33.770Z,27.20
2018-05-27T14:24:01.262Z,27.20
2018-05-27T14:26:29.552Z,27.10
2018-05-27T14:28:57.815Z,27.10
2018-05-27T14:31:26.060Z,27.10
2018-05-27T14:33:53.561Z,27.00
2018-05-27T14:36:21.777Z,26.90
2018-05-27T14:38:49.320Z,26.90
2018-05-27T14:41:16.761Z,26.70
2018-05-27T14:43:44.291Z,26.80
2018-05-27T14:46:11.758Z,26.80
2018-05-27T14:48:39.996Z,26.70
2018-05-27T14:51:07.502Z,26.60
2018-05-27T14:53:35.776Z,26.40
2018-05-27T14:56:04.021Z,26.20
2018-05-27T14:58:31.563Z,26.20
2018-05-27T15:00:59.063Z,26.10
2018-05-27T15:03:27.301Z,25.70
2018-05-27T15:05:54.798Z,25.60
2018-05-27T15:08:23.076Z,25.40
2018-05-27T15:10:51.329Z,25.40
2018-05-27T15:13:18.802Z,25.40
2018-05-27T15:15:47.059Z,25.40
2018-05-27T15:18:14.522Z,25.40
2018-05-27T15:20:42.032Z,25.30
2018-05-27T15:23:09.527Z,25.20
2018-05-27T15:25:37.026Z,25.30
2018-05-27T15:28:05.325Z,25.50
2018-05-27T15:30:32.894Z,25.40
2018-05-27T15:33:01.124Z,25.50
2018-05-27T15:35:28.620Z,25.50
2018-05-27T15:37:56.123Z,25.50
2018-05-27T15:40:23.620Z,25.50
2018-05-27T15:42:51.886Z,25.60
2018-05-27T15:45:19.361Z,25.60
2018-05-27T15:47:47.617Z,25.70
2018-05-27T15:50:16.637Z,25.80
2018-05-27T15:52:44.916Z,25.70
2018-05-27T15:55:13.157Z,25.70
2018-05-27T15:57:40.660Z,25.70
2018-05-27T16:00:08.153Z,25.70
2018-05-27T16:02:35.622Z,25.70
2018-05-27T16:05:03.126Z,25.70
2018-05-27T16:07:31.396Z,25.70
2018-05-27T16:09:59.639Z,25.70
2018-05-27T16:12:27.157Z,25.70
2018-05-27T16:14:54.633Z,25.80
2018-05-27T16:17:22.126Z,25.80
2018-05-27T16:19:49.606Z,25.80
2018-05-27T16:22:17.858Z,25.80
2018-05-27T16:24:45.341Z,25.80
2018-05-27T16:27:13.621Z,25.80
2018-05-27T16:29:41.867Z,25.80
2018-05-27T16:32:09.364Z,25.80
2018-05-27T16:34:36.844Z,25.80
2018-05-27T16:37:04.349Z,25.80
2018-05-27T16:39:31.875Z,25.80
2018-05-27T16:41:59.380Z,25.90
2018-05-27T16:44:27.659Z,25.80
2018-05-27T16:46:55.958Z,25.60
2018-05-27T16:49:23.435Z,25.60
2018-05-27T16:51:50.918Z,25.50
2018-05-27T16:54:18.417Z,25.50
2018-05-27T16:56:46.654Z,25.40
2018-05-27T16:59:14.133Z,25.40
2018-05-27T17:01:42.365Z,25.30
2018-05-27T17:04:09.881Z,25.30
2018-05-27T17:06:38.123Z,25.30
2018-05-27T17:09:05.621Z,25.30
2018-05-27T17:11:33.860Z,25.20
2018-05-27T17:14:01.361Z,25.20
2018-05-27T17:16:29.622Z,25.10
2018-05-27T17:18:57.106Z,25.00
2018-05-27T17:21:24.602Z,25.00
2018-05-27T17:23:52.089Z,24.90
2018-05-27T17:26:19.602Z,24.90
2018-05-27T17:28:47.073Z,24.90
2018-05-27T17:31:14.598Z,24.90
2018-05-27T17:33:42.863Z,24.70
2018-05-27T17:36:11.138Z,24.70
2018-05-27T17:38:39.382Z,24.60
2018-05-27T17:41:06.899Z,24.60
2018-05-27T17:43:34.387Z,24.60
2018-05-27T17:46:01.898Z,24.50
2018-05-27T17:48:30.158Z,24.30
2018-05-27T17:50:57.637Z,24.30
2018-05-27T17:53:25.914Z,24.10
2018-05-27T17:55:54.175Z,24.10
2018-05-27T17:58:22.433Z,24.00
2018-05-27T18:00:49.915Z,23.90
2018-05-27T18:03:18.170Z,23.90
2018-05-27T18:05:45.683Z,23.90
2018-05-27T18:08:13.180Z,23.80
2018-05-27T18:10:40.670Z,23.80
2018-05-27T18:13:08.958Z,23.50
2018-05-27T18:15:37.229Z,23.40
2018-05-27T18:18:05.556Z,23.20
2018-05-27T18:20:33.745Z,23.10
2018-05-27T18:23:01.237Z,23.00
2018-05-27T18:25:29.508Z,22.90
2018-05-27T18:27:57.763Z,22.70
2018-05-27T18:30:25.257Z,22.70
2018-05-27T18:32:53.502Z,22.40
2018-05-27T18:35:22.510Z,22.30
2018-05-27T18:37:49.994Z,22.30
2018-05-27T18:40:17.518Z,22.20
2018-05-27T18:42:46.494Z,22.00
2018-05-27T18:45:14.023Z,22.00
2018-05-27T18:47:41.521Z,22.00
2018-05-27T18:50:09.053Z,22.00
2018-05-27T18:52:36.525Z,21.90
2018-05-27T18:55:04.029Z,21.80
2018-05-27T18:57:32.282Z,21.50
2018-05-27T18:59:59.794Z,21.50
2018-05-27T19:02:27.302Z,21.40
2018-05-27T19:04:54.774Z,21.30
2018-05-27T19:07:23.052Z,20.90
2018-05-27T19:09:51.294Z,20.80
2018-05-27T19:12:18.790Z,20.80
2018-05-27T19:14:47.038Z,20.50
2018-05-27T19:17:14.563Z,20.40
2018-05-27T19:19:42.783Z,20.30
2018-05-27T19:22:10.289Z,20.20
2018-05-27T19:24:37.782Z,20.30
2018-05-27T19:27:05.272Z,20.10
2018-05-27T19:29:33.510Z,20.00
2018-05-27T19:32:01.096Z,20.00
2018-05-27T19:34:28.573Z,19.90
2018-05-27T19:36:56.825Z,19.50
2018-05-27T19:39:24.325Z,19.50
2018-05-27T19:41:51.810Z,19.40
2018-05-27T19:44:19.342Z,19.30
2018-05-27T19:46:47.596Z,19.10
2018-05-27T19:49:15.915Z,19.00
2018-05-27T19:51:44.146Z,18.90
2018-05-27T19:54:11.640Z,18.90
2018-05-27T19:56:39.140Z,18.80
2018-05-27T19:59:06.643Z,18.70
2018-05-27T20:01:34.898Z,18.50
2018-05-27T20:04:03.174Z,18.40
2018-05-27T20:06:30.647Z,18.40
2018-05-27T20:08:58.906Z,18.40
2018-05-27T20:11:26.394Z,18.30
2018-05-27T20:13:53.881Z,18.40
2018-05-27T20:16:21.429Z,18.30
2018-05-27T20:18:48.920Z,18.20
2018-05-27T20:21:16.435Z,18.00
2018-05-27T20:23:43.906Z,17.90
2018-05-27T20:26:11.399Z,17.90
2018-05-27T20:28:38.926Z,17.70
2018-05-27T20:31:06.427Z,17.70
2018-05-27T20:33:33.941Z,17.60
2018-05-27T20:36:01.431Z,17.60
2018-05-27T20:38:28.970Z,17.70
2018-05-27T20:40:56.434Z,17.60
2018-05-27T20:43:23.934Z,17.60
2018-05-27T20:45:51.434Z,17.50
2018-05-27T20:48:18.943Z,17.40
2018-05-27T20:50:46.433Z,17.30
2018-05-27T20:53:14.693Z,17.30
2018-05-27T20:55:42.929Z,17.10
2018-05-27T20:58:10.427Z,17.10
2018-05-27T21:00:37.926Z,17.10
2018-05-27T21:03:05.498Z,17.20
2018-05-27T21:05:32.982Z,17.00
2018-05-27T21:08:00.441Z,16.90
2018-05-27T21:10:27.956Z,16.90
2018-05-27T21:12:55.417Z,16.80
2018-05-27T21:15:22.935Z,16.80
2018-05-27T21:17:50.447Z,16.80
2018-05-27T21:20:17.915Z,16.70
2018-05-27T21:22:45.397Z,16.60
2018-05-27T21:25:12.897Z,16.60
2018-05-27T21:27:40.385Z,16.60
2018-05-27T21:30:07.998Z,16.60
2018-05-27T21:32:36.245Z,16.30
2018-05-27T21:35:04.462Z,16.30
2018-05-27T21:37:32.687Z,16.30
2018-05-27T21:40:00.181Z,16.30
2018-05-27T21:42:28.458Z,16.20
2018-05-27T21:44:55.938Z,16.10
2018-05-27T21:47:24.226Z,16.00
2018-05-27T21:49:51.709Z,16.00
2018-05-27T21:52:19.191Z,16.00
2018-05-27T21:54:46.669Z,15.90
2018-05-27T21:57:14.922Z,15.70
2018-05-27T21:59:42.389Z,15.70
2018-05-27T22:02:09.884Z,15.70
2018-05-27T22:04:37.374Z,15.60
2018-05-27T22:07:04.886Z,15.60
2018-05-27T22:09:33.137Z,15.50
2018-05-27T22:12:01.373Z,15.50
2018-05-27T22:14:28.857Z,15.50
2018-05-27T22:16:56.333Z,15.40
2018-05-27T22:19:24.588Z,15.40
2018-05-27T22:21:52.077Z,15.40
2018-05-27T22:24:19.585Z,15.30
2018-05-27T22:26:47.050Z,15.30
2018-05-27T22:29:14.569Z,15.20
2018-05-27T22:31:42.807Z,15.10
2018-05-27T22:34:10.298Z,15.10
2018-05-27T22:36:38.556Z,15.00
2018-05-27T22:39:06.807Z,15.00
2018-05-27T22:41:34.284Z,15.00
2018-05-27T22:44:02.549Z,15.00
2018-05-27T22:46:30.017Z,14.90
2018-05-27T22:48:57.537Z,15.00
2018-05-27T22:51:25.013Z,14.90
2018-05-27T22:53:52.548Z,14.80
2018-05-27T22:56:20.012Z,14.80
2018-05-27T22:58:47.478Z,14.70
2018-05-27T23:01:15.029Z,14.60
2018-05-27T23:03:43.233Z,14.60
2018-05-27T23:06:10.733Z,14.60
2018-05-27T23:08:38.985Z,14.70
2018-05-27T23:11:06.485Z,14.60
2018-05-27T23:13:33.958Z,14.60
2018-05-27T23:16:01.458Z,14.60
2018-05-27T23:18:29.696Z,14.50
2018-05-27T23:20:57.201Z,14.50
2018-05-27T23:23:24.677Z,14.40
2018-05-27T23:25:52.958Z,14.40
2018-05-27T23:28:21.185Z,14.40
2018-05-27T23:30:48.687Z,14.30
2018-05-27T23:33:16.928Z,14.30
2018-05-27T23:35:44.413Z,14.30
2018-05-27T23:38:11.917Z,14.30
2018-05-27T23:40:39.385Z,14.20
2018-05-27T23:43:06.871Z,14.10
2018-05-27T23:45:34.364Z,14.10
2018-05-27T23:48:02.637Z,14.00
2018-05-27T23:50:30.863Z,14.00
2018-05-27T23:52:58.362Z,14.00
2018-05-27T23:55:26.585Z,14.10
2018-05-27T23:57:54.097Z,14.00
